sensor_id;sensor_type;location;lat;lon;timestamp;temperature;humidity
74811;DHT22;63340;48.404;-4.506;2023-03-21T00:01:27;13.60;79.91
74811;DHT22;63340;48.404;-4.506;2023-03-21T00:03:56;13.62;79.93
74811;DHT22;63340;48.404;-4.506;2023-03-21T00:06:21;13.61;80.02
74811;DHT22;63340;48.404;-4.506;2023-03-21T00:08:47;13.58;80.27
74811;DHT22;63340;48.404;-4.506;2023-03-21T00:11:13;13.55;80.54
74811;DHT22;63340;48.404;-4.506;2023-03-21T00:13:44;13.44;81.32
74811;DHT22;63340;48.404;-4.506;2023-03-21T00:16:12;13.43;81.39
74811;DHT22;63340;48.404;-4.506;2023-03-21T00:18:40;13.50;81.32
74811;DHT22;63340;48.404;-4.506;2023-03-21T00:21:07;13.50;81.21
74811;DHT22;63340;48.404;-4.506;2023-03-21T00:23:37;13.53;81.20
74811;DHT22;63340;48.404;-4.506;2023-03-21T00:26:08;13.54;81.23
74811;DHT22;63340;48.404;-4.506;2023-03-21T00:28:38;13.51;81.44
74811;DHT22;63340;48.404;-4.506;2023-03-21T00:31:10;13.47;81.62
74811;DHT22;63340;48.404;-4.506;2023-03-21T00:33:35;13.50;81.75
74811;DHT22;63340;48.404;-4.506;2023-03-21T00:36:04;13.48;81.92
74811;DHT22;63340;48.404;-4.506;2023-03-21T00:38:29;13.48;81.99
74811;DHT22;63340;48.404;-4.506;2023-03-21T00:40:55;13.47;82.27
74811;DHT22;63340;48.404;-4.506;2023-03-21T00:43:23;13.51;82.26
74811;DHT22;63340;48.404;-4.506;2023-03-21T00:45:55;13.54;82.26
74811;DHT22;63340;48.404;-4.506;2023-03-21T00:48:27;13.55;82.18
74811;DHT22;63340;48.404;-4.506;2023-03-21T00:50:56;13.48;82.38
74811;DHT22;63340;48.404;-4.506;2023-03-21T00:53:24;13.54;82.45
74811;DHT22;63340;48.404;-4.506;2023-03-21T00:55:50;13.53;82.64
74811;DHT22;63340;48.404;-4.506;2023-03-21T00:58:16;13.43;82.78
74811;DHT22;63340;48.404;-4.506;2023-03-21T01:00:42;13.47;83.00
74811;DHT22;63340;48.404;-4.506;2023-03-21T01:03:10;13.53;82.85
74811;DHT22;63340;48.404;-4.506;2023-03-21T01:05:42;13.51;82.86
74811;DHT22;63340;48.404;-4.506;2023-03-21T01:08:29;13.58;82.74
74811;DHT22;63340;48.404;-4.506;2023-03-21T01:11:01;13.48;82.94
74811;DHT22;63340;48.404;-4.506;2023-03-21T01:13:30;13.53;82.88
74811;DHT22;63340;48.404;-4.506;2023-03-21T01:15:58;13.53;83.06
74811;DHT22;63340;48.404;-4.506;2023-03-21T01:18:27;13.54;83.14
74811;DHT22;63340;48.404;-4.506;2023-03-21T01:20:55;13.54;83.20
74811;DHT22;63340;48.404;-4.506;2023-03-21T01:23:22;13.55;83.10
74811;DHT22;63340;48.404;-4.506;2023-03-21T01:25:53;13.46;83.26
74811;DHT22;63340;48.404;-4.506;2023-03-21T01:28:19;13.46;83.44
74811;DHT22;63340;48.404;-4.506;2023-03-21T01:30:48;13.43;83.58
74811;DHT22;63340;48.404;-4.506;2023-03-21T01:33:15;13.50;83.54
74811;DHT22;63340;48.404;-4.506;2023-03-21T01:35:44;13.40;83.73
74811;DHT22;63340;48.404;-4.506;2023-03-21T01:38:09;13.48;83.70
74811;DHT22;63340;48.404;-4.506;2023-03-21T01:40:45;13.44;83.72
74811;DHT22;63340;48.404;-4.506;2023-03-21T01:43:25;13.41;83.84
74811;DHT22;63340;48.404;-4.506;2023-03-21T01:46:19;13.47;83.80
74811;DHT22;63340;48.404;-4.506;2023-03-21T01:51:49;13.53;83.65
74811;DHT22;63340;48.404;-4.506;2023-03-21T01:54:22;13.50;83.58
74811;DHT22;63340;48.404;-4.506;2023-03-21T01:56:49;13.50;83.64
74811;DHT22;63340;48.404;-4.506;2023-03-21T01:59:20;13.51;83.72
74811;DHT22;63340;48.404;-4.506;2023-03-21T02:01:49;13.50;83.81
74811;DHT22;63340;48.404;-4.506;2023-03-21T02:04:17;13.55;83.65
74811;DHT22;63340;48.404;-4.506;2023-03-21T02:07:06;13.57;83.50
74811;DHT22;63340;48.404;-4.506;2023-03-21T02:09:36;13.51;83.46
74811;DHT22;63340;48.404;-4.506;2023-03-21T02:12:03;13.53;83.35
74811;DHT22;63340;48.404;-4.506;2023-03-21T02:14:32;13.54;83.35
74811;DHT22;63340;48.404;-4.506;2023-03-21T02:17:17;13.48;83.36
74811;DHT22;63340;48.404;-4.506;2023-03-21T02:34:50;13.58;83.13
74811;DHT22;63340;48.404;-4.506;2023-03-21T02:37:48;13.53;82.96
74811;DHT22;63340;48.404;-4.506;2023-03-21T02:40:38;13.50;82.94
74811;DHT22;63340;48.404;-4.506;2023-03-21T02:43:23;13.53;82.85
74811;DHT22;63340;48.404;-4.506;2023-03-21T02:45:59;13.51;82.72
74811;DHT22;63340;48.404;-4.506;2023-03-21T02:48:51;13.53;82.69
74811;DHT22;63340;48.404;-4.506;2023-03-21T02:51:23;13.43;82.65
74811;DHT22;63340;48.404;-4.506;2023-03-21T02:54:03;13.54;82.65
74811;DHT22;63340;48.404;-4.506;2023-03-21T02:56:31;13.48;82.58
74811;DHT22;63340;48.404;-4.506;2023-03-21T02:58:59;13.50;82.65
74811;DHT22;63340;48.404;-4.506;2023-03-21T03:01:25;13.53;82.69
74811;DHT22;63340;48.404;-4.506;2023-03-21T03:03:51;13.53;82.48
74811;DHT22;63340;48.404;-4.506;2023-03-21T03:06:27;13.50;82.58
74811;DHT22;63340;48.404;-4.506;2023-03-21T03:18:00;13.40;82.69
74811;DHT22;63340;48.404;-4.506;2023-03-21T03:26:56;13.51;82.42
74811;DHT22;63340;48.404;-4.506;2023-03-21T03:29:25;13.51;82.29
74811;DHT22;63340;48.404;-4.506;2023-03-21T03:32:05;13.51;82.49
74811;DHT22;63340;48.404;-4.506;2023-03-21T03:34:36;13.54;82.47
74811;DHT22;63340;48.404;-4.506;2023-03-21T03:37:10;13.53;82.49
74811;DHT22;63340;48.404;-4.506;2023-03-21T03:39:46;13.44;82.52
74811;DHT22;63340;48.404;-4.506;2023-03-21T03:42:17;13.47;82.51
74811;DHT22;63340;48.404;-4.506;2023-03-21T03:44:43;13.53;82.36
74811;DHT22;63340;48.404;-4.506;2023-03-21T03:47:12;13.58;82.27
74811;DHT22;63340;48.404;-4.506;2023-03-21T03:49:45;13.57;82.01
74811;DHT22;63340;48.404;-4.506;2023-03-21T03:52:20;13.55;82.02
74811;DHT22;63340;48.404;-4.506;2023-03-21T03:54:48;13.50;81.94
74811;DHT22;63340;48.404;-4.506;2023-03-21T03:57:16;13.51;81.96
74811;DHT22;63340;48.404;-4.506;2023-03-21T03:59:44;13.46;82.15
74811;DHT22;63340;48.404;-4.506;2023-03-21T04:02:10;13.44;82.23
74811;DHT22;63340;48.404;-4.506;2023-03-21T04:04:35;13.48;82.27
74811;DHT22;63340;48.404;-4.506;2023-03-21T04:07:02;13.50;82.29
74811;DHT22;63340;48.404;-4.506;2023-03-21T04:09:28;13.50;82.24
74811;DHT22;63340;48.404;-4.506;2023-03-21T04:11:54;13.53;82.16
74811;DHT22;63340;48.404;-4.506;2023-03-21T04:14:20;13.40;81.63
74811;DHT22;63340;48.404;-4.506;2023-03-21T04:16:46;13.47;81.85
74811;DHT22;63340;48.404;-4.506;2023-03-21T04:19:11;13.50;81.97
74811;DHT22;63340;48.404;-4.506;2023-03-21T04:21:37;13.55;81.88
74811;DHT22;63340;48.404;-4.506;2023-03-21T04:24:03;13.53;81.80
74811;DHT22;63340;48.404;-4.506;2023-03-21T04:26:29;13.54;81.78
74811;DHT22;63340;48.404;-4.506;2023-03-21T04:28:58;13.54;81.84
74811;DHT22;63340;48.404;-4.506;2023-03-21T04:31:28;13.55;81.78
74811;DHT22;63340;48.404;-4.506;2023-03-21T04:33:56;13.48;81.41
74811;DHT22;63340;48.404;-4.506;2023-03-21T04:36:23;13.48;81.30
74811;DHT22;63340;48.404;-4.506;2023-03-21T04:38:52;13.51;81.04
74811;DHT22;63340;48.404;-4.506;2023-03-21T04:41:18;13.55;80.94
74811;DHT22;63340;48.404;-4.506;2023-03-21T04:43:44;13.57;80.75
74811;DHT22;63340;48.404;-4.506;2023-03-21T04:46:10;13.58;80.61
74811;DHT22;63340;48.404;-4.506;2023-03-21T04:48:38;13.60;80.68
74811;DHT22;63340;48.404;-4.506;2023-03-21T04:51:06;13.64;80.73
74811;DHT22;63340;48.404;-4.506;2023-03-21T04:53:32;13.65;80.45
74811;DHT22;63340;48.404;-4.506;2023-03-21T04:55:58;13.64;80.25
74811;DHT22;63340;48.404;-4.506;2023-03-21T04:58:25;13.67;80.06
74811;DHT22;63340;48.404;-4.506;2023-03-21T05:00:50;13.67;79.93
74811;DHT22;63340;48.404;-4.506;2023-03-21T05:03:17;13.65;79.67
74811;DHT22;63340;48.404;-4.506;2023-03-21T05:05:45;13.55;79.75
74811;DHT22;63340;48.404;-4.506;2023-03-21T05:08:12;13.54;79.74
74811;DHT22;63340;48.404;-4.506;2023-03-21T05:10:37;13.53;79.62
74811;DHT22;63340;48.404;-4.506;2023-03-21T05:13:03;13.54;79.48
74811;DHT22;63340;48.404;-4.506;2023-03-21T05:15:28;13.50;79.14
74811;DHT22;63340;48.404;-4.506;2023-03-21T05:17:54;13.48;79.13
74811;DHT22;63340;48.404;-4.506;2023-03-21T05:20:23;13.44;79.20
74811;DHT22;63340;48.404;-4.506;2023-03-21T05:22:49;13.33;79.42
74811;DHT22;63340;48.404;-4.506;2023-03-21T05:25:16;13.26;79.64
74811;DHT22;63340;48.404;-4.506;2023-03-21T05:27:45;13.27;79.89
74811;DHT22;63340;48.404;-4.506;2023-03-21T05:30:18;13.36;79.99
74811;DHT22;63340;48.404;-4.506;2023-03-21T05:32:44;13.43;79.89
74811;DHT22;63340;48.404;-4.506;2023-03-21T05:35:11;13.37;79.43
74811;DHT22;63340;48.404;-4.506;2023-03-21T05:37:36;13.33;79.49
74811;DHT22;63340;48.404;-4.506;2023-03-21T05:40:04;13.30;79.60
74811;DHT22;63340;48.404;-4.506;2023-03-21T05:42:31;13.32;79.64
74811;DHT22;63340;48.404;-4.506;2023-03-21T05:44:56;13.34;79.60
74811;DHT22;63340;48.404;-4.506;2023-03-21T05:47:22;13.36;79.44
74811;DHT22;63340;48.404;-4.506;2023-03-21T05:49:47;13.36;79.47
74811;DHT22;63340;48.404;-4.506;2023-03-21T05:52:14;13.41;79.37
74811;DHT22;63340;48.404;-4.506;2023-03-21T05:54:40;13.41;79.35
74811;DHT22;63340;48.404;-4.506;2023-03-21T05:57:05;13.50;79.39
74811;DHT22;63340;48.404;-4.506;2023-03-21T05:59:32;13.57;79.25
74811;DHT22;63340;48.404;-4.506;2023-03-21T06:01:58;13.60;78.93
74811;DHT22;63340;48.404;-4.506;2023-03-21T06:04:24;13.57;78.56
74811;DHT22;63340;48.404;-4.506;2023-03-21T06:06:49;13.60;78.74
74811;DHT22;63340;48.404;-4.506;2023-03-21T06:09:20;13.55;78.39
74811;DHT22;63340;48.404;-4.506;2023-03-21T06:11:48;13.58;78.65
74811;DHT22;63340;48.404;-4.506;2023-03-21T06:14:15;13.58;78.30
74811;DHT22;63340;48.404;-4.506;2023-03-21T06:16:41;13.61;78.18
74811;DHT22;63340;48.404;-4.506;2023-03-21T06:19:06;13.61;78.13
74811;DHT22;63340;48.404;-4.506;2023-03-21T06:21:32;13.61;78.07
74811;DHT22;63340;48.404;-4.506;2023-03-21T06:23:58;13.58;78.13
74811;DHT22;63340;48.404;-4.506;2023-03-21T06:26:23;13.58;78.13
74811;DHT22;63340;48.404;-4.506;2023-03-21T06:28:49;13.48;78.30
74811;DHT22;63340;48.404;-4.506;2023-03-21T06:31:33;13.51;78.48
74811;DHT22;63340;48.404;-4.506;2023-03-21T06:38:21;13.46;78.65
74811;DHT22;63340;48.404;-4.506;2023-03-21T06:41:45;13.46;78.77
74811;DHT22;63340;48.404;-4.506;2023-03-21T06:44:48;13.48;78.87
74811;DHT22;63340;48.404;-4.506;2023-03-21T06:47:51;13.48;78.83
74811;DHT22;63340;48.404;-4.506;2023-03-21T06:50:59;13.50;78.93
74811;DHT22;63340;48.404;-4.506;2023-03-21T06:53:25;13.55;79.06
74811;DHT22;63340;48.404;-4.506;2023-03-21T06:56:18;13.61;79.06
74811;DHT22;63340;48.404;-4.506;2023-03-21T06:58:44;13.57;79.13
74811;DHT22;63340;48.404;-4.506;2023-03-21T07:01:32;13.53;79.41
74811;DHT22;63340;48.404;-4.506;2023-03-21T07:04:17;13.53;79.51
74811;DHT22;63340;48.404;-4.506;2023-03-21T07:06:50;13.53;79.53
74811;DHT22;63340;48.404;-4.506;2023-03-21T07:09:19;13.48;79.73
74811;DHT22;63340;48.404;-4.506;2023-03-21T07:12:22;13.50;79.75
74811;DHT22;63340;48.404;-4.506;2023-03-21T07:22:13;13.51;79.77
74811;DHT22;63340;48.404;-4.506;2023-03-21T07:24:55;13.50;79.81
74811;DHT22;63340;48.404;-4.506;2023-03-21T07:27:23;13.47;80.02
74811;DHT22;63340;48.404;-4.506;2023-03-21T07:29:51;13.46;79.99
74811;DHT22;63340;48.404;-4.506;2023-03-21T07:32:16;13.46;79.99
74811;DHT22;63340;48.404;-4.506;2023-03-21T07:34:41;13.41;79.81
74811;DHT22;63340;48.404;-4.506;2023-03-21T07:37:07;13.46;79.62
74811;DHT22;63340;48.404;-4.506;2023-03-21T07:39:32;13.48;79.17
74811;DHT22;63340;48.404;-4.506;2023-03-21T07:41:59;13.47;78.68
74811;DHT22;63340;48.404;-4.506;2023-03-21T07:44:24;13.48;78.26
74811;DHT22;63340;48.404;-4.506;2023-03-21T07:46:50;13.51;78.12
74811;DHT22;63340;48.404;-4.506;2023-03-21T07:49:15;13.53;77.74
74811;DHT22;63340;48.404;-4.506;2023-03-21T07:51:41;13.55;77.63
74811;DHT22;63340;48.404;-4.506;2023-03-21T07:54:07;13.60;77.48
74811;DHT22;63340;48.404;-4.506;2023-03-21T07:56:32;13.71;77.47
74811;DHT22;63340;48.404;-4.506;2023-03-21T07:58:58;13.79;77.33
74811;DHT22;63340;48.404;-4.506;2023-03-21T08:01:24;13.78;76.22
74811;DHT22;63340;48.404;-4.506;2023-03-21T08:03:50;13.79;76.36
74811;DHT22;63340;48.404;-4.506;2023-03-21T08:06:20;13.77;76.08
74811;DHT22;63340;48.404;-4.506;2023-03-21T08:08:46;13.85;76.54
74811;DHT22;63340;48.404;-4.506;2023-03-21T08:11:12;13.88;76.02
74811;DHT22;63340;48.404;-4.506;2023-03-21T08:13:38;13.92;75.95
74811;DHT22;63340;48.404;-4.506;2023-03-21T08:16:04;13.97;76.28
74811;DHT22;63340;48.404;-4.506;2023-03-21T08:18:29;14.06;75.86
74811;DHT22;63340;48.404;-4.506;2023-03-21T08:20:56;14.20;76.02
74811;DHT22;63340;48.404;-4.506;2023-03-21T08:23:23;14.26;75.43
74811;DHT22;63340;48.404;-4.506;2023-03-21T08:25:55;14.34;75.67
74811;DHT22;63340;48.404;-4.506;2023-03-21T08:28:22;14.30;75.28
74811;DHT22;63340;48.404;-4.506;2023-03-21T08:30:48;14.33;75.64
74811;DHT22;63340;48.404;-4.506;2023-03-21T08:33:14;14.40;75.79
74811;DHT22;63340;48.404;-4.506;2023-03-21T08:35:41;14.46;75.59
74811;DHT22;63340;48.404;-4.506;2023-03-21T08:38:07;14.51;75.80
74811;DHT22;63340;48.404;-4.506;2023-03-21T08:40:33;14.56;75.26
74811;DHT22;63340;48.404;-4.506;2023-03-21T08:42:58;14.55;75.36
74811;DHT22;63340;48.404;-4.506;2023-03-21T08:45:24;14.53;75.41
74811;DHT22;63340;48.404;-4.506;2023-03-21T08:47:51;14.50;75.59
74811;DHT22;63340;48.404;-4.506;2023-03-21T08:50:23;14.61;75.64
74811;DHT22;63340;48.404;-4.506;2023-03-21T08:52:49;14.50;75.73
74811;DHT22;63340;48.404;-4.506;2023-03-21T08:55:16;14.53;76.10
74811;DHT22;63340;48.404;-4.506;2023-03-21T08:57:42;14.60;76.28
74811;DHT22;63340;48.404;-4.506;2023-03-21T09:00:10;14.78;76.31
74811;DHT22;63340;48.404;-4.506;2023-03-21T09:02:39;14.84;75.48
74811;DHT22;63340;48.404;-4.506;2023-03-21T09:05:04;14.81;75.00
74811;DHT22;63340;48.404;-4.506;2023-03-21T09:07:30;14.89;75.93
74811;DHT22;63340;48.404;-4.506;2023-03-21T09:09:58;14.98;74.65
74811;DHT22;63340;48.404;-4.506;2023-03-21T09:12:24;15.02;74.36
74811;DHT22;63340;48.404;-4.506;2023-03-21T09:14:50;15.12;74.26
74811;DHT22;63340;48.404;-4.506;2023-03-21T09:17:17;15.12;73.72
74811;DHT22;63340;48.404;-4.506;2023-03-21T09:19:43;15.16;73.67
74811;DHT22;63340;48.404;-4.506;2023-03-21T09:22:10;15.19;73.30
74811;DHT22;63340;48.404;-4.506;2023-03-21T09:24:43;15.25;73.80
74811;DHT22;63340;48.404;-4.506;2023-03-21T09:27:12;15.28;73.11
74811;DHT22;63340;48.404;-4.506;2023-03-21T09:29:38;15.28;73.09
74811;DHT22;63340;48.404;-4.506;2023-03-21T09:32:07;15.32;73.33
74811;DHT22;63340;48.404;-4.506;2023-03-21T09:34:33;15.35;73.36
74811;DHT22;63340;48.404;-4.506;2023-03-21T09:37:01;15.33;73.26
74811;DHT22;63340;48.404;-4.506;2023-03-21T09:39:27;15.36;73.75
74811;DHT22;63340;48.404;-4.506;2023-03-21T09:47:23;15.26;73.42
74811;DHT22;63340;48.404;-4.506;2023-03-21T09:50:04;15.29;73.83
74811;DHT22;63340;48.404;-4.506;2023-03-21T09:55:39;15.32;73.14
74811;DHT22;63340;48.404;-4.506;2023-03-21T10:00:44;15.16;73.02
74811;DHT22;63340;48.404;-4.506;2023-03-21T10:03:22;15.19;73.02
74811;DHT22;63340;48.404;-4.506;2023-03-21T10:05:53;15.24;73.14
74811;DHT22;63340;48.404;-4.506;2023-03-21T10:08:31;15.36;73.23
74811;DHT22;63340;48.404;-4.506;2023-03-21T10:11:25;15.45;72.52
74811;DHT22;63340;48.404;-4.506;2023-03-21T10:14:04;15.40;71.91
74811;DHT22;63340;48.404;-4.506;2023-03-21T10:16:38;15.46;71.69
74811;DHT22;63340;48.404;-4.506;2023-03-21T10:19:14;15.50;71.77
74811;DHT22;63340;48.404;-4.506;2023-03-21T10:21:41;15.45;71.46
74811;DHT22;63340;48.404;-4.506;2023-03-21T10:24:25;15.47;71.99
74811;DHT22;63340;48.404;-4.506;2023-03-21T10:26:53;15.43;71.39
74811;DHT22;63340;48.404;-4.506;2023-03-21T10:29:23;15.43;71.64
74811;DHT22;63340;48.404;-4.506;2023-03-21T10:31:50;15.56;71.90
74811;DHT22;63340;48.404;-4.506;2023-03-21T10:34:30;15.49;70.69
74811;DHT22;63340;48.404;-4.506;2023-03-21T10:36:58;15.56;71.36
74811;DHT22;63340;48.404;-4.506;2023-03-21T10:39:31;15.60;71.62
74811;DHT22;63340;48.404;-4.506;2023-03-21T10:41:58;15.70;71.60
74811;DHT22;63340;48.404;-4.506;2023-03-21T10:44:32;15.67;70.90
74811;DHT22;63340;48.404;-4.506;2023-03-21T10:47:06;15.63;71.05
74811;DHT22;63340;48.404;-4.506;2023-03-21T10:49:33;15.40;71.21
74811;DHT22;63340;48.404;-4.506;2023-03-21T10:52:10;15.38;71.89
74811;DHT22;63340;48.404;-4.506;2023-03-21T10:54:36;15.28;71.69
74811;DHT22;63340;48.404;-4.506;2023-03-21T10:57:22;15.32;71.89
74811;DHT22;63340;48.404;-4.506;2023-03-21T10:59:54;15.35;71.41
74811;DHT22;63340;48.404;-4.506;2023-03-21T11:02:34;15.46;71.73
74811;DHT22;63340;48.404;-4.506;2023-03-21T11:07:44;15.59;70.86
74811;DHT22;63340;48.404;-4.506;2023-03-21T11:10:24;15.56;70.92
74811;DHT22;63340;48.404;-4.506;2023-03-21T11:13:00;15.59;70.99
74811;DHT22;63340;48.404;-4.506;2023-03-21T11:21:04;15.39;70.71
74811;DHT22;63340;48.404;-4.506;2023-03-21T11:23:41;15.53;71.41
74811;DHT22;63340;48.404;-4.506;2023-03-21T11:26:15;15.60;71.61
74811;DHT22;63340;48.404;-4.506;2023-03-21T11:28:42;15.60;71.24
74811;DHT22;63340;48.404;-4.506;2023-03-21T11:31:09;15.62;70.33
74811;DHT22;63340;48.404;-4.506;2023-03-21T11:33:41;15.79;71.16
74811;DHT22;63340;48.404;-4.506;2023-03-21T11:38:55;16.04;70.45
74811;DHT22;63340;48.404;-4.506;2023-03-21T11:41:32;16.08;69.36
74811;DHT22;63340;48.404;-4.506;2023-03-21T11:43:59;16.05;69.14
74811;DHT22;63340;48.404;-4.506;2023-03-21T11:46:27;15.98;69.61
74811;DHT22;63340;48.404;-4.506;2023-03-21T11:48:54;15.91;69.57
74811;DHT22;63340;48.404;-4.506;2023-03-21T11:57:34;15.81;68.85
74811;DHT22;63340;48.404;-4.506;2023-03-21T12:00:23;15.84;69.88
74811;DHT22;63340;48.404;-4.506;2023-03-21T12:03:18;15.79;69.02
74811;DHT22;63340;48.404;-4.506;2023-03-21T12:05:55;15.76;69.53
74811;DHT22;63340;48.404;-4.506;2023-03-21T12:08:35;15.93;69.91
74811;DHT22;63340;48.404;-4.506;2023-03-21T12:11:18;16.10;69.11
74811;DHT22;63340;48.404;-4.506;2023-03-21T12:13:58;16.05;68.89
74811;DHT22;63340;48.404;-4.506;2023-03-21T12:16:36;16.15;68.33
74811;DHT22;63340;48.404;-4.506;2023-03-21T12:24:36;16.02;67.19
74811;DHT22;63340;48.404;-4.506;2023-03-21T12:29:57;15.93;66.96
74811;DHT22;63340;48.404;-4.506;2023-03-21T12:35:51;15.83;67.46
74811;DHT22;63340;48.404;-4.506;2023-03-21T12:38:25;15.84;68.29
74811;DHT22;63340;48.404;-4.506;2023-03-21T12:41:07;15.97;68.44
74811;DHT22;63340;48.404;-4.506;2023-03-21T12:43:36;16.00;68.28
74811;DHT22;63340;48.404;-4.506;2023-03-21T12:46:36;15.97;68.62
74811;DHT22;63340;48.404;-4.506;2023-03-21T12:49:15;15.89;68.04
74811;DHT22;63340;48.404;-4.506;2023-03-21T12:51:46;15.94;68.44
74811;DHT22;63340;48.404;-4.506;2023-03-21T12:54:29;16.05;68.86
74811;DHT22;63340;48.404;-4.506;2023-03-21T13:02:33;16.12;68.23
74811;DHT22;63340;48.404;-4.506;2023-03-21T13:05:21;16.12;67.51
74811;DHT22;63340;48.404;-4.506;2023-03-21T13:07:53;16.17;67.56
74811;DHT22;63340;48.404;-4.506;2023-03-21T13:10:21;16.07;68.19
74811;DHT22;63340;48.404;-4.506;2023-03-21T13:13:19;16.10;67.97
74811;DHT22;63340;48.404;-4.506;2023-03-21T13:18:44;16.10;67.61
74811;DHT22;63340;48.404;-4.506;2023-03-21T13:23:39;16.12;67.75
74811;DHT22;63340;48.404;-4.506;2023-03-21T13:26:09;16.14;68.01
74811;DHT22;63340;48.404;-4.506;2023-03-21T13:28:38;16.17;67.93
74811;DHT22;63340;48.404;-4.506;2023-03-21T13:31:19;16.05;67.88
74811;DHT22;63340;48.404;-4.506;2023-03-21T13:33:48;16.04;68.23
74811;DHT22;63340;48.404;-4.506;2023-03-21T13:36:29;16.10;68.31
74811;DHT22;63340;48.404;-4.506;2023-03-21T13:39:04;16.18;68.13
74811;DHT22;63340;48.404;-4.506;2023-03-21T13:41:34;16.25;67.79
74811;DHT22;63340;48.404;-4.506;2023-03-21T13:54:21;16.14;67.89
74811;DHT22;63340;48.404;-4.506;2023-03-21T13:56:55;15.96;68.72
74811;DHT22;63340;48.404;-4.506;2023-03-21T13:59:37;15.80;69.15
74811;DHT22;63340;48.404;-4.506;2023-03-21T14:02:29;15.76;69.92
74811;DHT22;63340;48.404;-4.506;2023-03-21T14:05:02;15.94;70.05
74811;DHT22;63340;48.404;-4.506;2023-03-21T14:07:31;16.04;69.10
74811;DHT22;63340;48.404;-4.506;2023-03-21T14:10:04;16.08;68.71
74811;DHT22;63340;48.404;-4.506;2023-03-21T14:12:37;15.98;68.91
74811;DHT22;63340;48.404;-4.506;2023-03-21T14:17:59;16.02;68.89
74811;DHT22;63340;48.404;-4.506;2023-03-21T14:20:31;16.04;68.89
74811;DHT22;63340;48.404;-4.506;2023-03-21T14:22:57;16.11;68.85
74811;DHT22;63340;48.404;-4.506;2023-03-21T14:25:24;16.24;68.58
74811;DHT22;63340;48.404;-4.506;2023-03-21T14:27:54;16.22;68.26
74811;DHT22;63340;48.404;-4.506;2023-03-21T14:30:25;16.22;68.72
74811;DHT22;63340;48.404;-4.506;2023-03-21T14:32:58;16.02;68.66
74811;DHT22;63340;48.404;-4.506;2023-03-21T14:35:29;16.12;69.20
74811;DHT22;63340;48.404;-4.506;2023-03-21T14:37:57;16.07;69.23
74811;DHT22;63340;48.404;-4.506;2023-03-21T14:40:26;16.08;69.03
74811;DHT22;63340;48.404;-4.506;2023-03-21T14:42:53;16.12;69.10
74811;DHT22;63340;48.404;-4.506;2023-03-21T14:45:24;16.18;68.48
74811;DHT22;63340;48.404;-4.506;2023-03-21T14:47:58;16.17;68.26
74811;DHT22;63340;48.404;-4.506;2023-03-21T14:50:49;16.08;68.41
74811;DHT22;63340;48.404;-4.506;2023-03-21T14:53:30;15.70;69.37
74811;DHT22;63340;48.404;-4.506;2023-03-21T14:56:02;15.69;70.13
74811;DHT22;63340;48.404;-4.506;2023-03-21T14:58:31;15.45;70.86
74811;DHT22;63340;48.404;-4.506;2023-03-21T15:01:01;15.36;70.76
74811;DHT22;63340;48.404;-4.506;2023-03-21T15:03:28;15.38;71.08
74811;DHT22;63340;48.404;-4.506;2023-03-21T15:05:54;15.38;70.95
74811;DHT22;63340;48.404;-4.506;2023-03-21T15:08:23;15.42;70.28
74811;DHT22;63340;48.404;-4.506;2023-03-21T15:11:03;15.45;70.20
74811;DHT22;63340;48.404;-4.506;2023-03-21T15:13:34;15.56;70.60
74811;DHT22;63340;48.404;-4.506;2023-03-21T15:16:00;15.64;70.17
74811;DHT22;63340;48.404;-4.506;2023-03-21T15:18:31;15.80;69.42
74811;DHT22;63340;48.404;-4.506;2023-03-21T15:21:09;15.79;69.05
74811;DHT22;63340;48.404;-4.506;2023-03-21T15:23:45;15.79;69.61
74811;DHT22;63340;48.404;-4.506;2023-03-21T15:26:16;15.76;68.85
74811;DHT22;63340;48.404;-4.506;2023-03-21T15:28:47;15.71;68.72
74811;DHT22;63340;48.404;-4.506;2023-03-21T15:31:19;15.70;68.64
74811;DHT22;63340;48.404;-4.506;2023-03-21T15:33:47;15.63;68.82
74811;DHT22;63340;48.404;-4.506;2023-03-21T15:36:34;15.66;68.91
74811;DHT22;63340;48.404;-4.506;2023-03-21T15:39:07;15.66;68.91
74811;DHT22;63340;48.404;-4.506;2023-03-21T15:41:36;15.64;68.95
74811;DHT22;63340;48.404;-4.506;2023-03-21T15:44:13;15.64;69.16
74811;DHT22;63340;48.404;-4.506;2023-03-21T15:46:48;15.73;69.17
74811;DHT22;63340;48.404;-4.506;2023-03-21T15:51:42;15.71;69.01
74811;DHT22;63340;48.404;-4.506;2023-03-21T15:54:15;15.60;69.59
74811;DHT22;63340;48.404;-4.506;2023-03-21T15:56:42;15.73;69.61
74811;DHT22;63340;48.404;-4.506;2023-03-21T15:59:15;15.89;69.21
74811;DHT22;63340;48.404;-4.506;2023-03-21T16:01:48;15.91;69.14
74811;DHT22;63340;48.404;-4.506;2023-03-21T16:04:14;16.00;69.05
74811;DHT22;63340;48.404;-4.506;2023-03-21T16:06:56;15.97;68.67
74811;DHT22;63340;48.404;-4.506;2023-03-21T16:09:23;16.18;68.69
74811;DHT22;63340;48.404;-4.506;2023-03-21T16:11:54;16.26;68.22
74811;DHT22;63340;48.404;-4.506;2023-03-21T16:14:21;16.29;68.13
74811;DHT22;63340;48.404;-4.506;2023-03-21T16:16:47;16.35;67.96
74811;DHT22;63340;48.404;-4.506;2023-03-21T16:19:13;16.35;67.73
74811;DHT22;63340;48.404;-4.506;2023-03-21T16:21:39;16.45;67.93
74811;DHT22;63340;48.404;-4.506;2023-03-21T16:24:06;16.55;67.71
74811;DHT22;63340;48.404;-4.506;2023-03-21T16:26:35;16.53;67.08
74811;DHT22;63340;48.404;-4.506;2023-03-21T16:29:02;16.58;66.68
74811;DHT22;63340;48.404;-4.506;2023-03-21T16:31:30;16.48;66.77
74811;DHT22;63340;48.404;-4.506;2023-03-21T16:33:56;16.55;67.23
74811;DHT22;63340;48.404;-4.506;2023-03-21T16:36:29;16.52;67.15
74811;DHT22;63340;48.404;-4.506;2023-03-21T16:38:56;16.60;67.39
74811;DHT22;63340;48.404;-4.506;2023-03-21T16:41:24;16.75;67.14
74811;DHT22;63340;48.404;-4.506;2023-03-21T16:43:50;16.81;66.92
74811;DHT22;63340;48.404;-4.506;2023-03-21T16:46:22;16.76;66.96
74811;DHT22;63340;48.404;-4.506;2023-03-21T16:48:51;16.68;66.63
74811;DHT22;63340;48.404;-4.506;2023-03-21T16:51:19;16.66;66.90
74811;DHT22;63340;48.404;-4.506;2023-03-21T16:53:46;16.59;66.96
74811;DHT22;63340;48.404;-4.506;2023-03-21T16:56:36;16.55;67.35
74811;DHT22;63340;48.404;-4.506;2023-03-21T16:59:03;16.51;67.62
74811;DHT22;63340;48.404;-4.506;2023-03-21T17:01:30;16.38;67.26
74811;DHT22;63340;48.404;-4.506;2023-03-21T17:03:58;16.42;67.77
74811;DHT22;63340;48.404;-4.506;2023-03-21T17:06:25;16.38;67.66
74811;DHT22;63340;48.404;-4.506;2023-03-21T17:08:52;16.36;67.70
74811;DHT22;63340;48.404;-4.506;2023-03-21T17:11:20;16.17;68.44
74811;DHT22;63340;48.404;-4.506;2023-03-21T17:13:50;15.98;68.78
74811;DHT22;63340;48.404;-4.506;2023-03-21T17:16:22;15.84;68.60
74811;DHT22;63340;48.404;-4.506;2023-03-21T17:18:49;15.76;68.79
74811;DHT22;63340;48.404;-4.506;2023-03-21T17:21:20;15.60;69.05
74811;DHT22;63340;48.404;-4.506;2023-03-21T17:23:46;15.49;69.36
74811;DHT22;63340;48.404;-4.506;2023-03-21T17:26:19;15.43;69.65
74811;DHT22;63340;48.404;-4.506;2023-03-21T17:28:46;15.46;69.83
74811;DHT22;63340;48.404;-4.506;2023-03-21T17:31:13;15.28;70.49